Flight Track Log - Related Links

Times and Time Zones

All times are in EDT time to prevent confusion due to time zone crossing. See the EJA951 flight status page for this flight to view local times or setup timezone preferences in your user account.


Time Position Orientation Groundspeed Altitude Reporting Facility
EDT Latitude Longitude Course Direction KTS MPH feet Rate Location/Type
Sat 03:20:01 PM 30.0711 -95.5547 346° North 198 228 800  Level Houston Center
Sat 03:21:03 PM 30.1211 -95.5689 346° North 186 214 4,100 3,265 Climbing Houston Center
Sat 03:21:09 PM 30.1217 -95.5803 273° West 198 228 4,500 1,258 Climbing Houston Center
Sat 03:22:05 PM 30.1000 -95.6408 248° West 252 290 5,400 1,377 Climbing Houston Center
Sat 03:22:10 PM 30.0925 -95.6514 231° Southwest 293 337 5,900 3,900 Climbing Houston Center
Sat 03:23:05 PM 30.0639 -95.7319 248° West 302 348 9,300 3,429 Climbing Houston Center
Sat 03:23:06 PM 30.0667 -95.7256 63° Northeast 287 330 9,100 1,967 Descending Houston Center
Sat 03:24:06 PM 30.0367 -95.8267 251° West 320 368 11,300 2,129 Climbing Houston Center
Sat 03:24:08 PM 30.0381 -95.8161 81° East 299 344 11,300 656 Level Houston Center
Sat 03:25:10 PM 30.0103 -95.9258 254° West 349 402 12,000 290 Climbing Houston Center
Sat 03:26:12 PM 29.9778 -96.0492 253° West 369 425 11,900 -49 Descending Houston Center
Sat 03:27:13 PM 29.9478 -96.1606 253° West 367 422 11,900  Level Houston Center
Sat 03:28:15 PM 29.9183 -96.2633 252° West 343 395 11,900  Level Houston Center
Sat 03:29:17 PM 29.8953 -96.3692 256° West 342 394 11,900  Level Houston Center
Sat 03:30:18 PM 29.9039 -96.4939 275° West 332 382 11,900  Level Houston Center
Sat 03:31:20 PM 29.9406 -96.5872 294° West 322 371 11,900  Level Houston Center
Sat 03:32:22 PM 29.9797 -96.6886 294° West 343 395 11,900  Level Houston Center
Sat 03:33:23 PM 30.0189 -96.7914 294° West 353 406 11,900  Level Houston Center
Sat 03:34:25 PM 30.0567 -96.8936 293° West 349 402 11,900 -97 Level Houston Center
Sat 03:35:27 PM 30.0875 -96.9983 289° West 348 400 11,700 -629 Descending Houston Center
Sat 03:36:29 PM 30.1147 -97.0919 289° West 289 333 10,600 -1,366 Descending Houston Center
Sat 03:37:30 PM 30.1403 -97.1744 290° West 273 314 8,900 -1,854 Descending Houston Center
Sat 03:38:32 PM 30.1689 -97.2703 289° West 268 308 6,800 -1,355 Descending Houston Center
Sat 03:39:34 PM 30.1742 -97.3514 274° West 258 297 6,100 -341 Descending Houston Center
Sat 03:40:35 PM 30.1689 -97.4275 265° West 243 280 6,100 -49 Level Houston Center
Sat 03:41:37 PM 30.1494 -97.4972 252° West 251 289 6,000 -484 Descending Houston Center
Sat 03:42:39 PM 30.0811 -97.5347 205° Southwest 270 311 5,100 -968 Descending Houston Center
Sat 03:43:41 PM 30.0172 -97.5672 204° Southwest 238 274 4,000 -1,220 Descending Houston Center
Sat 03:44:42 PM 30.0172 -97.6328 270° West 206 237 2,600 -683 Descending Houston Center
Sat 03:45:44 PM 30.0589 -97.6542 336° Northwest 169 194 2,600 -242 Level Houston Center
Sat 03:46:46 PM 30.0994 -97.6569 357° North 153 176 2,100 -581 Descending Houston Center
Sat 03:47:48 PM 30.1342 -97.6569 360° North 138 159 1,400 -677 Descending Houston Center

Login

Don't have an account? Register now (free) for customized features, flight alerts, and more!